Time;durP1;ratioP1;P1;durP2;ratioP2;P2;SDS_P1;SDS_P2;PMS_P1;PMS_P2;Temp;Humidity;BMP_temperature;BMP_pressure;BME280_temperature;BME280_humidity;BME280_pressure;Samples;Min_cycle;Max_cycle;Signal;HPM_P1;HPM_P2
2022/01/07 06:00:41;;;;;;;12.87;11.50;;;2.00;97.20;;;;;;1695761;29;20222;-86
2022/01/07 06:01:32;;;;;;;11.85;10.75;;;2.00;97.20;;;;;;1696730;29;20585;-86
2022/01/07 06:02:24;;;;;;;13.90;11.20;;;2.00;97.20;;;;;;1695945;29;20315;-86
2022/01/07 06:03:15;;;;;;;12.43;10.85;;;2.00;97.20;;;;;;1696878;29;20444;-86
2022/01/07 06:04:07;;;;;;;12.90;10.95;;;2.00;97.20;;;;;;1695922;29;20227;-86
2022/01/07 06:04:57;;;;;;;11.98;10.77;;;2.00;97.20;;;;;;1696858;29;20583;-86
2022/01/07 06:05:49;;;;;;;13.40;11.00;;;2.00;97.20;;;;;;1696248;29;20225;-86
2022/01/07 06:06:40;;;;;;;14.23;11.48;;;2.00;97.20;;;;;;1696715;29;20628;-86
2022/01/07 06:07:32;;;;;;;13.50;12.10;;;2.00;97.20;;;;;;1696538;29;20203;-86
2022/01/07 06:08:22;;;;;;;13.07;11.43;;;2.00;97.20;;;;;;1696040;29;20242;-86
2022/01/07 06:09:14;;;;;;;11.60;10.40;;;2.00;97.20;;;;;;1695730;29;20703;-86
2022/01/07 06:10:06;;;;;;;13.15;11.80;;;1.90;97.20;;;;;;1703274;29;20215;-86
2022/01/07 06:10:58;;;;;;;13.77;12.38;;;1.90;97.20;;;;;;1702511;29;20227;-86
2022/01/07 06:11:48;;;;;;;13.20;11.95;;;1.90;97.20;;;;;;1702676;29;20229;-86
2022/01/07 06:12:40;;;;;;;14.60;11.70;;;1.90;97.20;;;;;;1701013;29;20259;-85
2022/01/07 06:13:31;;;;;;;12.63;11.43;;;1.90;97.20;;;;;;1703069;29;20218;-86
2022/01/07 06:14:23;;;;;;;12.23;11.00;;;1.90;97.20;;;;;;1702528;29;20210;-86
2022/01/07 06:15:13;;;;;;;13.02;11.65;;;1.90;97.20;;;;;;1703116;29;20293;-85
2022/01/07 06:16:07;;;;;;;12.80;11.27;;;1.80;97.20;;;;;;1702931;29;20262;-85
2022/01/07 06:16:57;;;;;;;12.35;11.15;;;1.80;97.20;;;;;;1703269;29;20206;-85
2022/01/07 06:17:49;;;;;;;12.50;11.20;;;1.80;97.20;;;;;;1702450;29;20274;-86
2022/01/07 06:18:40;;;;;;;13.05;11.73;;;1.80;97.20;;;;;;1703196;29;20611;-86
2022/01/07 06:19:32;;;;;;;13.48;11.88;;;1.80;97.20;;;;;;1699111;29;20612;-85
2022/01/07 06:20:23;;;;;;;12.52;11.23;;;1.80;97.20;;;;;;1696475;29;20208;-86
2022/01/07 06:21:15;;;;;;;13.90;12.20;;;1.80;97.20;;;;;;1696060;29;20209;-86
2022/01/07 06:22:05;;;;;;;12.65;11.38;;;1.80;97.20;;;;;;1696698;29;20223;-85
2022/01/07 06:22:57;;;;;;;12.83;11.40;;;1.80;97.20;;;;;;1695531;29;20200;-86
2022/01/07 06:23:48;;;;;;;13.77;12.45;;;1.80;97.20;;;;;;1696388;29;20218;-85
2022/01/07 06:24:40;;;;;;;12.40;10.90;;;1.80;97.20;;;;;;1695417;29;20204;-85
2022/01/07 06:25:30;;;;;;;12.90;11.60;;;1.80;97.20;;;;;;1696388;29;20845;-85
2022/01/07 06:26:22;;;;;;;12.77;11.57;;;1.80;97.20;;;;;;1695372;29;20570;-85
2022/01/07 06:27:13;;;;;;;13.40;11.80;;;1.80;97.20;;;;;;1696190;29;20203;-85
2022/01/07 06:28:05;;;;;;;14.27;12.80;;;1.80;97.20;;;;;;1695548;29;20275;-85
2022/01/07 06:28:56;;;;;;;14.02;11.55;;;1.80;97.20;;;;;;1696295;29;20471;-85
2022/01/07 06:29:47;;;;;;;14.10;12.70;;;1.90;97.20;;;;;;1700469;29;20195;-85
2022/01/07 06:30:38;;;;;;;13.00;11.70;;;1.90;97.20;;;;;;1703094;29;20227;-85
2022/01/07 06:31:32;;;;;;;13.03;11.73;;;1.90;97.20;;;;;;1702290;29;20203;-85
2022/01/07 06:32:23;;;;;;;12.27;11.07;;;1.90;97.20;;;;;;1702850;29;20235;-86
2022/01/07 06:33:15;;;;;;;12.38;11.23;;;1.90;97.20;;;;;;1702308;29;20590;-86
2022/01/07 06:34:06;;;;;;;13.30;11.80;;;1.80;97.20;;;;;;1702428;29;20207;-86
2022/01/07 06:34:57;;;;;;;12.20;11.00;;;1.90;97.20;;;;;;1702520;29;20207;-85
2022/01/07 06:35:48;;;;;;;13.40;12.00;;;1.90;97.20;;;;;;1702704;29;20250;-85
2022/01/07 06:36:40;;;;;;;13.50;12.20;;;1.90;97.20;;;;;;1701950;29;20199;-86
2022/01/07 06:37:31;;;;;;;13.00;11.70;;;1.90;97.20;;;;;;1702380;29;20207;-85
2022/01/07 06:38:22;;;;;;;13.27;11.87;;;2.00;97.20;;;;;;1701942;29;20310;-85
2022/01/07 06:39:13;;;;;;;12.90;11.60;;;2.00;97.20;;;;;;1702153;29;20583;-85
2022/01/07 06:40:07;;;;;;;14.40;12.90;;;2.00;97.20;;;;;;1689525;29;20604;-85
2022/01/07 06:40:58;;;;;;;14.75;13.18;;;2.00;97.20;;;;;;1689764;29;20469;-85
2022/01/07 06:41:50;;;;;;;13.63;12.23;;;2.00;97.20;;;;;;1689543;29;20291;-85
2022/01/07 06:42:41;;;;;;;14.27;12.90;;;2.00;97.20;;;;;;1690578;29;20247;-85
2022/01/07 06:43:33;;;;;;;13.23;12.03;;;2.00;97.20;;;;;;1689626;29;20215;-85
2022/01/07 06:44:42;;;;;;;12.57;11.35;;;2.00;97.20;;;;;;1689165;29;20204;-85
2022/01/07 06:45:32;;;;;;;14.00;12.60;;;2.00;97.20;;;;;;1689679;29;20213;-85
2022/01/07 06:46:24;;;;;;;13.30;11.97;;;2.00;97.20;;;;;;1688831;29;20286;-86
2022/01/07 06:47:16;;;;;;;13.75;12.45;;;2.00;97.20;;;;;;1689119;29;20239;-86
2022/01/07 06:48:08;;;;;;;12.70;11.45;;;1.90;97.20;;;;;;1688768;29;20291;-85
2022/01/07 06:48:59;;;;;;;12.88;11.50;;;1.90;97.20;;;;;;1689308;29;20208;-85
2022/01/07 06:49:50;;;;;;;12.90;11.60;;;1.90;97.20;;;;;;1698255;29;20227;-85
2022/01/07 06:50:41;;;;;;;12.27;11.15;;;1.90;97.20;;;;;;1702862;29;20233;-85
2022/01/07 06:51:33;;;;;;;12.88;11.52;;;1.90;97.20;;;;;;1701890;29;20206;-85
2022/01/07 06:52:24;;;;;;;13.98;12.65;;;2.00;97.20;;;;;;1702415;29;20203;-85
2022/01/07 06:53:16;;;;;;;13.87;12.50;;;2.00;97.20;;;;;;1701809;29;20199;-85
2022/01/07 06:54:07;;;;;;;11.57;10.43;;;2.00;97.20;;;;;;1702750;29;20443;-85
2022/01/07 06:54:59;;;;;;;13.18;11.98;;;1.90;97.20;;;;;;1702117;29;20290;-86
2022/01/07 06:55:50;;;;;;;13.25;11.95;;;1.90;97.20;;;;;;1702371;29;20239;-85
2022/01/07 06:56:43;;;;;;;12.60;11.30;;;2.00;97.20;;;;;;1702057;29;20219;-85
2022/01/07 06:57:34;;;;;;;12.35;11.07;;;2.00;97.20;;;;;;1701914;29;20586;-85
2022/01/07 06:58:27;;;;;;;12.50;10.67;;;2.00;97.20;;;;;;1701857;29;20210;-86
2022/01/07 06:59:17;;;;;;;12.32;11.13;;;2.00;97.20;;;;;;1701910;29;20214;-85
2022/01/07 07:00:10;;;;;;;12.23;10.80;;;2.00;97.20;;;;;;1696392;29;20224;-85
2022/01/07 07:01:01;;;;;;;13.27;11.90;;;2.00;97.20;;;;;;1695610;29;20236;-85
2022/01/07 07:01:53;;;;;;;12.63;11.43;;;2.00;97.20;;;;;;1695487;29;20214;-86
2022/01/07 07:02:46;;;;;;;12.02;10.80;;;2.00;97.20;;;;;;1695593;29;20679;-86
2022/01/07 07:03:39;;;;;;;12.13;10.90;;;2.00;97.20;;;;;;1695873;29;20242;-86
2022/01/07 07:04:31;;;;;;;11.77;10.57;;;1.90;97.20;;;;;;1695300;29;20620;-85
2022/01/07 07:05:24;;;;;;;12.15;10.90;;;1.90;97.20;;;;;;1695715;29;20584;-86
2022/01/07 07:06:16;;;;;;;12.77;11.25;;;1.90;97.20;;;;;;1696056;29;20214;-86
2022/01/07 07:07:06;;;;;;;11.77;10.57;;;1.90;97.20;;;;;;1695565;29;20214;-85
2022/01/07 07:07:58;;;;;;;11.97;10.80;;;2.00;97.20;;;;;;1694764;29;20204;-86
2022/01/07 07:08:49;;;;;;;11.38;10.18;;;2.00;97.20;;;;;;1695563;29;20444;-85
2022/01/07 07:09:41;;;;;;;11.60;10.40;;;2.00;97.20;;;;;;1698119;29;20721;-86
2022/01/07 07:10:33;;;;;;;11.95;10.82;;;2.00;97.20;;;;;;1702059;29;20239;-86
2022/01/07 07:11:23;;;;;;;12.32;11.10;;;2.00;97.20;;;;;;1702302;29;20207;-85
2022/01/07 07:12:15;;;;;;;12.33;11.03;;;2.00;97.20;;;;;;1701625;29;20205;-86
2022/01/07 07:13:06;;;;;;;12.38;11.13;;;2.00;97.20;;;;;;1702309;29;20210;-85
2022/01/07 07:13:58;;;;;;;11.67;10.47;;;2.00;97.20;;;;;;1701473;29;20297;-86
2022/01/07 07:14:49;;;;;;;11.18;10.10;;;2.10;97.20;;;;;;1702089;29;20214;-86
2022/01/07 07:15:40;;;;;;;12.53;11.30;;;2.10;97.20;;;;;;1701615;29;20199;-85
2022/01/07 07:16:31;;;;;;;12.43;10.77;;;2.00;97.20;;;;;;1702851;29;20203;-86
2022/01/07 07:17:24;;;;;;;13.47;11.57;;;2.00;97.20;;;;;;1701924;29;20215;-85
2022/01/07 07:18:17;;;;;;;12.75;11.48;;;2.10;97.20;;;;;;1701911;29;20682;-85
2022/01/07 07:19:09;;;;;;;11.90;10.80;;;2.10;97.20;;;;;;1702238;29;20694;-85
2022/01/07 07:20:00;;;;;;;11.38;10.30;;;2.10;97.20;;;;;;1696112;29;20200;-86
2022/01/07 07:20:52;;;;;;;12.63;11.40;;;2.10;97.20;;;;;;1695337;29;20231;-86
2022/01/07 07:21:43;;;;;;;12.38;11.05;;;2.10;97.20;;;;;;1695381;29;20207;-86
2022/01/07 07:22:34;;;;;;;12.23;11.00;;;2.10;97.20;;;;;;1694925;29;20208;-85
2022/01/07 07:23:25;;;;;;;11.90;10.70;;;2.10;97.20;;;;;;1695563;29;20215;-86
2022/01/07 07:24:17;;;;;;;11.77;10.60;;;2.10;97.20;;;;;;1695222;29;20242;-86
2022/01/07 07:25:09;;;;;;;12.52;11.32;;;2.20;97.20;;;;;;1695539;29;20207;-85
2022/01/07 07:26:00;;;;;;;12.35;11.05;;;2.10;97.20;;;;;;1695509;29;20667;-85
2022/01/07 07:26:52;;;;;;;11.93;10.73;;;2.20;97.20;;;;;;1694976;29;20651;-85
2022/01/07 07:27:43;;;;;;;11.88;10.75;;;2.20;97.20;;;;;;1695115;29;20579;-86
2022/01/07 07:28:36;;;;;;;11.95;10.80;;;2.20;97.20;;;;;;1695078;29;20203;-86
2022/01/07 07:29:28;;;;;;;11.20;10.10;;;2.20;97.20;;;;;;1696244;29;20218;-85
2022/01/07 07:30:19;;;;;;;11.70;10.60;;;2.20;97.20;;;;;;1702094;29;20277;-85
2022/01/07 07:31:14;;;;;;;11.25;10.13;;;2.20;97.20;;;;;;1701433;29;20202;-85
2022/01/07 07:32:07;;;;;;;10.95;9.88;;;2.20;97.20;;;;;;1702269;29;20211;-85
2022/01/07 07:33:07;;;;;;;11.57;10.15;;;2.20;97.20;;;;;;1702138;29;20698;-86
2022/01/07 07:34:31;;;;;;;11.32;10.18;;;2.20;97.20;;;;;;1701473;29;20203;-86
2022/01/07 07:36:32;;;;;;;11.02;10.02;;;2.10;97.20;;;;;;1702055;29;20250;-86
2022/01/07 07:37:23;;;;;;;11.57;10.10;;;2.00;97.20;;;;;;1701862;29;20244;-86
2022/01/07 07:38:14;;;;;;;11.83;10.73;;;2.00;97.20;;;;;;1701135;29;20285;-86
2022/01/07 07:39:08;;;;;;;12.07;10.98;;;2.00;97.20;;;;;;1695713;29;20452;-86
2022/01/07 07:40:00;;;;;;;11.65;10.55;;;2.00;97.20;;;;;;1695059;29;20672;-85
2022/01/07 07:40:51;;;;;;;11.23;10.20;;;2.00;97.20;;;;;;1695346;29;20291;-85
2022/01/07 07:41:44;;;;;;;11.73;10.63;;;2.00;97.20;;;;;;1695700;29;20203;-83
2022/01/07 07:42:36;;;;;;;11.48;10.38;;;2.00;97.20;;;;;;1702095;29;20230;-83
2022/01/07 07:43:27;;;;;;;11.55;10.45;;;2.10;97.20;;;;;;1702042;29;20207;-82
2022/01/07 07:44:19;;;;;;;11.40;10.30;;;2.10;97.20;;;;;;1702054;29;20237;-83
2022/01/07 07:45:13;;;;;;;12.00;10.80;;;2.00;97.20;;;;;;1702028;29;20458;-83
2022/01/07 07:46:07;;;;;;;11.38;10.27;;;2.00;97.20;;;;;;1701883;29;20199;-83
2022/01/07 07:46:58;;;;;;;12.88;11.70;;;2.00;97.20;;;;;;1700229;29;20307;-83
2022/01/07 07:47:50;;;;;;;11.17;9.87;;;2.00;97.20;;;;;;1693950;29;20406;-84
2022/01/07 07:48:41;;;;;;;11.50;10.40;;;2.10;97.20;;;;;;1698901;29;20455;-85
2022/01/07 07:49:34;;;;;;;13.32;11.80;;;2.10;97.20;;;;;;1700615;29;20206;-85
2022/01/07 07:50:26;;;;;;;11.70;10.57;;;2.10;97.20;;;;;;1701035;29;20225;-85
2022/01/07 07:51:18;;;;;;;11.60;10.40;;;2.20;97.20;;;;;;1701116;29;20693;-84
2022/01/07 07:52:10;;;;;;;11.05;9.88;;;2.20;97.20;;;;;;1700970;29;20694;-85
2022/01/07 07:53:01;;;;;;;10.75;9.75;;;2.20;97.20;;;;;;1701344;29;20207;-85
2022/01/07 07:53:54;;;;;;;11.27;10.13;;;2.20;97.20;;;;;;1701579;29;20210;-85
2022/01/07 07:54:44;;;;;;;10.95;9.48;;;2.20;97.20;;;;;;1700991;29;20238;-86
2022/01/07 07:55:37;;;;;;;11.60;10.57;;;2.20;97.20;;;;;;1701086;29;20209;-87
2022/01/07 07:56:27;;;;;;;11.18;10.07;;;2.20;97.20;;;;;;1701215;29;20455;-87
2022/01/07 07:57:21;;;;;;;14.00;11.53;;;2.20;97.20;;;;;;1697351;29;20274;-87
2022/01/07 07:58:11;;;;;;;11.80;10.55;;;2.20;97.20;;;;;;1695135;29;20452;-87
2022/01/07 07:59:03;;;;;;;11.60;10.50;;;2.20;97.20;;;;;;1695701;29;20267;-87
2022/01/07 07:59:54;;;;;;;12.20;10.95;;;2.20;97.20;;;;;;1696044;29;20379;-87
2022/01/07 08:00:47;;;;;;;11.10;10.00;;;2.10;97.20;;;;;;1695435;29;20741;-87
2022/01/07 08:01:38;;;;;;;11.50;10.32;;;2.10;97.20;;;;;;1698347;29;20212;-86
2022/01/07 08:02:30;;;;;;;11.17;9.67;;;2.10;97.20;;;;;;1697297;29;20259;-86
2022/01/07 08:03:22;;;;;;;11.43;10.20;;;2.10;97.20;;;;;;1696489;29;20204;-86
2022/01/07 08:04:15;;;;;;;10.80;9.80;;;2.10;97.20;;;;;;1695798;29;20251;-86
2022/01/07 08:05:10;;;;;;;11.55;10.30;;;2.10;97.20;;;;;;1696408;29;20299;-86
2022/01/07 08:06:01;;;;;;;10.20;9.10;;;2.10;97.20;;;;;;1701769;29;20246;-87
2022/01/07 08:06:53;;;;;;;11.17;10.17;;;2.10;97.20;;;;;;1702871;29;20216;-86
2022/01/07 08:07:43;;;;;;;11.23;10.13;;;2.10;97.20;;;;;;1709420;29;20454;-86
2022/01/07 08:08:35;;;;;;;11.00;10.00;;;2.10;97.20;;;;;;1709770;28;20230;-86
2022/01/07 08:09:30;;;;;;;11.18;10.02;;;2.10;97.20;;;;;;1709835;29;20203;-86
2022/01/07 08:10:24;;;;;;;11.27;10.18;;;2.10;97.20;;;;;;1709750;29;20199;-86
2022/01/07 08:11:16;;;;;;;11.40;10.40;;;2.10;97.20;;;;;;1709836;29;20198;-87
2022/01/07 08:12:18;;;;;;;11.32;10.23;;;2.10;97.20;;;;;;1707282;29;20270;-87
2022/01/07 08:13:28;;;;;;;9.48;8.57;;;2.20;97.20;;;;;;1705381;29;20263;-88
2022/01/07 08:16:38;;;;;;;11.93;10.82;;;2.20;97.20;;;;;;1705639;29;20202;-86
2022/01/07 08:17:30;;;;;;;11.30;10.30;;;2.20;97.20;;;;;;1699851;29;20272;-86
2022/01/07 08:18:23;;;;;;;10.77;9.80;;;2.20;97.20;;;;;;1698331;29;20203;-86
2022/01/07 08:19:15;;;;;;;10.55;9.65;;;2.20;97.20;;;;;;1698934;29;20231;-87
2022/01/07 08:20:09;;;;;;;10.85;9.75;;;2.20;97.20;;;;;;1698269;29;20690;-87
2022/01/07 08:21:02;;;;;;;13.43;11.10;;;2.20;97.20;;;;;;1698345;29;20236;-87
2022/01/07 08:21:54;;;;;;;11.50;10.35;;;2.20;97.20;;;;;;1698898;29;20568;-87
2022/01/07 08:22:46;;;;;;;11.60;10.50;;;2.20;97.20;;;;;;1698595;29;20218;-88
2022/01/07 08:23:39;;;;;;;11.23;9.43;;;2.20;97.20;;;;;;1698953;29;20215;-87
2022/01/07 08:24:30;;;;;;;14.05;10.23;;;2.20;97.20;;;;;;1699191;29;20235;-86
2022/01/07 08:25:23;;;;;;;11.73;10.52;;;2.20;97.20;;;;;;1699209;29;20217;-87
2022/01/07 08:26:17;;;;;;;11.23;9.85;;;2.20;97.20;;;;;;1699421;29;20214;-87
2022/01/07 08:27:08;;;;;;;11.15;10.02;;;2.30;97.20;;;;;;1701672;29;20203;-87
2022/01/07 08:28:01;;;;;;;12.87;10.20;;;2.30;97.20;;;;;;1705533;29;20229;-87
2022/01/07 08:28:56;;;;;;;10.43;9.40;;;2.30;97.20;;;;;;1705745;29;20215;-87
2022/01/07 08:29:49;;;;;;;11.15;10.10;;;2.30;97.20;;;;;;1705924;29;20231;-87
2022/01/07 08:30:59;;;;;;;10.60;9.60;;;2.30;97.20;;;;;;1703556;29;20219;-87
2022/01/07 08:35:21;;;;;;;11.25;10.25;;;2.40;97.20;;;;;;1705706;29;20215;-84
2022/01/07 08:36:11;;;;;;;11.77;10.52;;;2.40;97.20;;;;;;1705357;29;20705;-84
2022/01/07 08:37:04;;;;;;;12.03;10.90;;;2.40;97.20;;;;;;1705054;29;20609;-85
2022/01/07 08:37:55;;;;;;;10.98;9.90;;;2.40;97.20;;;;;;1705160;29;20463;-84
2022/01/07 08:38:48;;;;;;;11.35;10.35;;;2.40;97.20;;;;;;1705101;29;20629;-85
2022/01/07 08:39:40;;;;;;;11.65;10.55;;;2.50;97.20;;;;;;1703617;29;20267;-86
2022/01/07 08:40:33;;;;;;;11.10;10.10;;;2.50;97.20;;;;;;1703881;29;20211;-86
2022/01/07 08:41:27;;;;;;;11.70;10.50;;;2.50;97.20;;;;;;1701237;29;20199;-87
2022/01/07 08:42:19;;;;;;;11.60;10.20;;;2.50;97.20;;;;;;1702049;29;20203;-86
2022/01/07 08:43:10;;;;;;;11.18;10.07;;;2.60;97.20;;;;;;1702553;29;20215;-86
2022/01/07 08:44:03;;;;;;;12.10;10.93;;;2.60;97.20;;;;;;1702118;29;20310;-86
2022/01/07 08:44:55;;;;;;;11.30;10.20;;;2.60;97.20;;;;;;1702717;29;20666;-85
2022/01/07 08:45:46;;;;;;;11.98;10.65;;;2.70;97.20;;;;;;1702716;29;20207;-86
2022/01/07 08:46:38;;;;;;;11.23;10.23;;;2.70;97.20;;;;;;1702754;29;20199;-85
2022/01/07 08:47:30;;;;;;;11.70;10.50;;;2.70;97.20;;;;;;1705598;29;20203;-85
2022/01/07 08:48:21;;;;;;;10.88;9.75;;;2.70;97.20;;;;;;1703504;29;20208;-86
2022/01/07 08:49:13;;;;;;;10.95;9.70;;;2.80;97.20;;;;;;1703501;29;20218;-85
2022/01/07 08:50:05;;;;;;;10.27;9.18;;;2.80;97.20;;;;;;1704213;29;20219;-85
2022/01/07 08:50:58;;;;;;;11.57;10.38;;;2.90;97.20;;;;;;1701817;29;20690;-85
2022/01/07 08:51:49;;;;;;;11.32;9.30;;;2.90;97.20;;;;;;1697154;29;20203;-85
2022/01/07 08:52:41;;;;;;;10.82;9.73;;;2.90;97.20;;;;;;1697280;29;20203;-86
2022/01/07 08:53:33;;;;;;;10.93;9.95;;;2.90;97.20;;;;;;1696604;29;20207;-85
2022/01/07 08:54:24;;;;;;;10.10;9.10;;;2.90;97.20;;;;;;1696689;29;20203;-85
2022/01/07 08:55:16;;;;;;;11.07;9.98;;;2.90;97.20;;;;;;1695809;29;20698;-88
2022/01/07 08:56:08;;;;;;;11.05;9.95;;;2.90;97.20;;;;;;1696266;29;20208;-87
2022/01/07 08:56:59;;;;;;;11.43;10.25;;;2.90;97.20;;;;;;1696174;29;20282;-87
2022/01/07 08:57:51;;;;;;;10.80;9.77;;;2.90;97.20;;;;;;1696652;29;20204;-87
2022/01/07 08:58:42;;;;;;;10.82;9.82;;;2.90;97.20;;;;;;1696288;29;20561;-86
2022/01/07 08:59:34;;;;;;;11.63;10.43;;;2.90;97.20;;;;;;1696321;29;20264;-87
2022/01/07 09:00:26;;;;;;;11.30;10.20;;;3.00;97.20;;;;;;1695867;29;20279;-87
2022/01/07 09:01:16;;;;;;;10.65;9.65;;;3.00;97.20;;;;;;1700013;29;20226;-87
2022/01/07 09:02:08;;;;;;;10.17;9.07;;;3.00;97.20;;;;;;1703388;29;20201;-86
2022/01/07 09:03:00;;;;;;;9.95;8.95;;;3.00;97.20;;;;;;1704719;29;20211;-84
2022/01/07 09:03:52;;;;;;;10.90;9.80;;;3.00;97.20;;;;;;1704845;29;20203;-84
2022/01/07 09:04:43;;;;;;;11.63;10.20;;;3.00;97.20;;;;;;1705185;29;20218;-84
2022/01/07 09:05:34;;;;;;;11.05;9.98;;;3.00;97.20;;;;;;1704907;29;20237;-84
2022/01/07 09:06:28;;;;;;;11.15;10.02;;;3.10;97.20;;;;;;1704740;29;20205;-83
2022/01/07 09:07:18;;;;;;;11.23;10.13;;;3.10;97.20;;;;;;1704226;29;20207;-84
2022/01/07 09:08:11;;;;;;;11.80;10.30;;;3.10;97.20;;;;;;1699174;29;20206;-85
2022/01/07 09:09:04;;;;;;;10.57;9.52;;;3.10;97.20;;;;;;1697393;29;20196;-85
2022/01/07 09:09:54;;;;;;;10.02;9.10;;;3.10;97.20;;;;;;1697700;29;20192;-85
2022/01/07 09:10:46;;;;;;;10.80;9.27;;;3.10;97.20;;;;;;1697584;29;20239;-85
2022/01/07 09:11:37;;;;;;;11.43;9.30;;;3.20;97.20;;;;;;1699929;29;20208;-85
2022/01/07 09:12:29;;;;;;;10.13;9.13;;;3.20;97.20;;;;;;1697312;29;20290;-84
2022/01/07 09:13:20;;;;;;;10.32;9.20;;;3.20;97.20;;;;;;1697818;29;20451;-85
2022/01/07 09:14:11;;;;;;;10.17;9.17;;;3.20;97.20;;;;;;1697887;29;20691;-87
2022/01/07 09:15:04;;;;;;;10.73;9.45;;;3.20;97.20;;;;;;1698345;29;20648;-87
2022/01/07 09:15:55;;;;;;;10.55;9.55;;;3.20;97.20;;;;;;1698813;29;20726;-88
2022/01/07 09:16:46;;;;;;;10.07;8.87;;;3.30;97.20;;;;;;1698147;29;20638;-87
2022/01/07 09:17:38;;;;;;;10.05;9.00;;;3.20;97.20;;;;;;1698530;29;20452;-86
2022/01/07 09:18:31;;;;;;;11.80;9.48;;;3.20;97.20;;;;;;1695474;29;20200;-86
2022/01/07 09:19:24;;;;;;;13.00;10.23;;;3.20;97.20;;;;;;1698504;29;20192;-87
2022/01/07 09:20:15;;;;;;;10.02;9.05;;;3.20;97.20;;;;;;1696284;29;20680;-87
2022/01/07 09:21:07;;;;;;;9.60;8.70;;;3.20;97.20;;;;;;1697633;29;20675;-85
2022/01/07 09:22:00;;;;;;;10.80;9.30;;;3.20;97.20;;;;;;1696634;29;20212;-85
2022/01/07 09:22:51;;;;;;;10.55;9.55;;;3.20;97.20;;;;;;1694566;29;20200;-84
2022/01/07 09:23:43;;;;;;;11.53;10.33;;;3.20;97.20;;;;;;1696601;29;20238;-86
2022/01/07 09:24:34;;;;;;;12.27;10.45;;;3.20;97.20;;;;;;1696542;29;20452;-84
2022/01/07 09:25:26;;;;;;;8.98;8.18;;;3.30;97.20;;;;;;1696703;29;20585;-86
2022/01/07 09:26:18;;;;;;;9.93;8.57;;;3.30;97.20;;;;;;1696635;29;20255;-85
2022/01/07 09:27:10;;;;;;;9.75;8.75;;;3.30;97.20;;;;;;1696751;29;20219;-85
2022/01/07 09:28:01;;;;;;;10.68;9.30;;;3.30;97.20;;;;;;1696420;29;20219;-85
2022/01/07 09:28:53;;;;;;;9.20;8.40;;;3.30;97.20;;;;;;1696503;29;20203;-85
2022/01/07 09:29:45;;;;;;;9.35;8.38;;;3.30;97.20;;;;;;1702131;29;20455;-85
2022/01/07 09:30:37;;;;;;;10.75;8.23;;;3.30;97.20;;;;;;1699492;29;20292;-85
2022/01/07 09:31:29;;;;;;;9.15;7.20;;;3.30;97.20;;;;;;1696167;29;20664;-85
2022/01/07 09:32:19;;;;;;;9.25;8.15;;;3.30;97.20;;;;;;1695977;29;20686;-86
2022/01/07 09:33:11;;;;;;;8.47;7.70;;;3.30;97.20;;;;;;1695756;29;20576;-87
2022/01/07 09:34:03;;;;;;;9.75;8.00;;;3.30;97.20;;;;;;1695776;29;20249;-89
2022/01/07 09:34:54;;;;;;;8.90;8.02;;;3.30;97.20;;;;;;1696538;29;20235;-86
2022/01/07 09:35:46;;;;;;;9.13;8.23;;;3.30;97.20;;;;;;1695786;29;20204;-88
2022/01/07 09:36:44;;;;;;;9.60;8.27;;;3.20;97.20;;;;;;1696276;29;20413;-87
2022/01/07 09:37:36;;;;;;;9.65;7.95;;;3.20;97.20;;;;;;1696257;29;20299;-87
2022/01/07 09:38:28;;;;;;;11.00;8.32;;;3.20;97.20;;;;;;1696597;29;20203;-87
2022/01/07 09:39:19;;;;;;;8.73;7.93;;;3.20;97.20;;;;;;1696725;29;20200;-88
2022/01/07 09:40:12;;;;;;;8.00;7.20;;;3.10;97.20;;;;;;1696297;29;20250;-87
2022/01/07 09:41:05;;;;;;;9.93;8.35;;;3.10;97.20;;;;;;1696933;29;20212;-87
2022/01/07 09:41:57;;;;;;;9.13;8.32;;;3.10;97.20;;;;;;1699013;29;23143;-87
2022/01/07 09:42:59;;;;;;;10.18;7.80;;;3.10;97.20;;;;;;1699078;29;20206;-88
2022/01/07 09:43:51;;;;;;;8.95;8.05;;;3.10;97.20;;;;;;1695592;29;20247;-87
2022/01/07 09:44:44;;;;;;;8.73;7.82;;;3.10;97.20;;;;;;1695492;29;20208;-88
2022/01/07 09:45:37;;;;;;;9.38;8.38;;;3.10;97.20;;;;;;1695905;29;20664;-87
2022/01/07 09:46:30;;;;;;;9.38;8.27;;;3.00;97.20;;;;;;1695863;29;20219;-88
2022/01/07 09:47:21;;;;;;;9.65;8.65;;;3.00;97.20;;;;;;1695642;29;20714;-88
2022/01/07 09:48:13;;;;;;;9.90;8.50;;;3.00;97.20;;;;;;1695370;29;20215;-86
2022/01/07 09:49:04;;;;;;;10.93;8.32;;;3.00;97.20;;;;;;1696204;29;20215;-86
2022/01/07 09:49:56;;;;;;;9.18;8.27;;;3.00;97.20;;;;;;1695893;29;20214;-86
2022/01/07 09:50:46;;;;;;;9.38;8.38;;;3.00;97.20;;;;;;1696298;29;20274;-85
2022/01/07 09:51:42;;;;;;;15.27;8.40;;;3.00;97.20;;;;;;1697802;29;20218;-84
2022/01/07 09:52:37;;;;;;;8.13;7.32;;;3.00;97.20;;;;;;1701160;29;20667;-83
2022/01/07 09:53:30;;;;;;;8.80;7.53;;;3.00;97.20;;;;;;1702514;29;20195;-83
2022/01/07 09:54:21;;;;;;;8.88;7.97;;;2.90;97.20;;;;;;1702584;29;20217;-84
2022/01/07 09:55:13;;;;;;;9.70;7.75;;;2.90;97.20;;;;;;1702725;29;20245;-83
2022/01/07 09:56:04;;;;;;;9.48;8.57;;;2.90;97.20;;;;;;1703647;29;20208;-83
2022/01/07 09:56:56;;;;;;;8.68;7.80;;;2.90;97.20;;;;;;1702699;29;20211;-83
2022/01/07 09:57:47;;;;;;;8.95;8.05;;;2.90;97.20;;;;;;1703064;29;20206;-83
2022/01/07 09:58:38;;;;;;;8.97;8.07;;;2.90;97.20;;;;;;1702617;29;20195;-82
2022/01/07 09:59:29;;;;;;;8.68;7.88;;;3.00;97.20;;;;;;1708022;29;20198;-85
2022/01/07 10:00:21;;;;;;;7.57;6.83;;;3.00;97.20;;;;;;1703250;29;20298;-85
2022/01/07 10:01:16;;;;;;;8.52;7.57;;;3.00;97.20;;;;;;1697063;29;20440;-85
2022/01/07 10:02:09;;;;;;;8.85;7.13;;;3.00;97.20;;;;;;1698279;29;20207;-83
2022/01/07 10:03:02;;;;;;;8.82;6.82;;;3.00;97.20;;;;;;1700608;29;20196;-83
2022/01/07 10:03:55;;;;;;;10.30;6.82;;;3.00;97.20;;;;;;1699563;29;20224;-83
2022/01/07 10:04:46;;;;;;;7.82;7.03;;;3.00;97.20;;;;;;1699696;29;20297;-83
2022/01/07 10:05:43;;;;;;;8.17;6.97;;;3.00;97.20;;;;;;1702147;29;20180;-83
2022/01/07 10:06:34;;;;;;;7.75;7.05;;;3.00;97.20;;;;;;1702074;29;20209;-82
2022/01/07 10:07:26;;;;;;;7.43;6.70;;;3.00;97.20;;;;;;1702398;28;20205;-83
2022/01/07 10:08:19;;;;;;;9.50;7.88;;;3.00;97.20;;;;;;1702562;29;20208;-83
2022/01/07 10:09:16;;;;;;;9.00;7.28;;;3.00;97.20;;;;;;1702829;29;20219;-84
2022/01/07 10:10:10;;;;;;;9.00;8.10;;;3.00;97.20;;;;;;1704282;29;20609;-83
2022/01/07 10:11:20;;;;;;;8.75;7.88;;;3.00;97.20;;;;;;1708889;29;20262;-83
2022/01/07 10:12:11;;;;;;;9.52;7.68;;;2.90;97.20;;;;;;1708177;29;20183;-83
2022/01/07 10:13:04;;;;;;;8.63;7.73;;;2.90;97.20;;;;;;1706406;29;20211;-83
2022/01/07 10:14:16;;;;;;;8.85;7.65;;;2.90;97.20;;;;;;1705697;29;20207;-83
2022/01/07 10:15:11;;;;;;;9.98;8.98;;;2.90;97.20;;;;;;1705225;29;20203;-83
2022/01/07 10:16:15;;;;;;;11.65;8.93;;;2.90;97.20;;;;;;1699615;29;20256;-83
2022/01/07 10:17:06;;;;;;;9.27;8.23;;;2.90;97.20;;;;;;1693269;29;20215;-83
2022/01/07 10:18:00;;;;;;;9.15;8.25;;;2.90;97.20;;;;;;1691925;29;20205;-83
2022/01/07 10:18:52;;;;;;;8.77;7.88;;;3.00;97.20;;;;;;1691881;29;20244;-85
2022/01/07 10:19:46;;;;;;;9.63;8.45;;;2.90;97.20;;;;;;1690728;29;20212;-85
2022/01/07 10:20:40;;;;;;;8.35;7.53;;;3.00;97.20;;;;;;1702817;29;20279;-85
2022/01/07 10:21:31;;;;;;;8.20;7.38;;;3.00;97.20;;;;;;1704223;29;20310;-86
2022/01/07 10:22:23;;;;;;;9.57;8.50;;;2.90;97.20;;;;;;1705499;29;20195;-84
2022/01/07 10:23:15;;;;;;;10.18;8.15;;;3.00;97.20;;;;;;1704031;29;20203;-80
2022/01/07 10:24:09;;;;;;;9.98;8.82;;;2.90;97.20;;;;;;1698726;29;20199;-80
2022/01/07 10:25:03;;;;;;;10.93;8.10;;;2.90;97.20;;;;;;1697969;29;20651;-85
2022/01/07 10:25:56;;;;;;;8.85;7.95;;;2.90;97.20;;;;;;1701750;29;20199;-84
2022/01/07 10:27:09;;;;;;;9.82;8.82;;;2.90;97.20;;;;;;1705431;29;20218;-85
2022/01/07 10:28:03;;;;;;;9.65;8.70;;;2.80;97.20;;;;;;1705141;29;20214;-84
2022/01/07 10:28:55;;;;;;;9.50;8.50;;;2.80;97.20;;;;;;1704429;29;20200;-86
2022/01/07 10:29:46;;;;;;;9.82;8.55;;;2.80;97.20;;;;;;1703974;29;20207;-86
2022/01/07 10:30:39;;;;;;;9.07;8.10;;;2.80;97.20;;;;;;1701171;29;20287;-85
2022/01/07 10:31:30;;;;;;;9.60;8.70;;;2.80;97.20;;;;;;1698718;29;21101;-86
2022/01/07 10:32:25;;;;;;;9.17;8.27;;;2.80;97.20;;;;;;1702181;29;20202;-83
2022/01/07 10:33:19;;;;;;;10.07;8.43;;;2.80;97.20;;;;;;1692261;29;20452;-85
2022/01/07 10:34:10;;;;;;;9.75;8.75;;;2.80;97.20;;;;;;1692137;29;20193;-85
2022/01/07 10:35:08;;;;;;;8.87;7.97;;;2.80;97.20;;;;;;1692773;29;20272;-85
2022/01/07 10:36:16;;;;;;;10.45;8.60;;;2.90;97.20;;;;;;1692556;29;20208;-86
2022/01/07 10:37:13;;;;;;;9.68;8.35;;;2.90;97.20;;;;;;1701977;29;20339;-82
2022/01/07 10:38:05;;;;;;;9.40;8.50;;;2.90;97.20;;;;;;1699525;29;20200;-83
2022/01/07 10:39:00;;;;;;;10.30;8.82;;;3.00;97.20;;;;;;1699177;29;20694;-85
2022/01/07 10:39:50;;;;;;;9.02;8.18;;;3.00;97.20;;;;;;1699564;29;20203;-84